sensor_id;sensor_type;location;lat;lon;timestamp;temperature;humidity
20568;DHT22;10442;49.932;11.592;2023-01-08T00:01:21;7.00;80.80
20568;DHT22;10442;49.932;11.592;2023-01-08T00:03:49;7.10;80.80
20568;DHT22;10442;49.932;11.592;2023-01-08T00:06:18;7.10;80.80
20568;DHT22;10442;49.932;11.592;2023-01-08T00:08:47;7.10;80.80
20568;DHT22;10442;49.932;11.592;2023-01-08T00:11:15;7.10;80.40
20568;DHT22;10442;49.932;11.592;2023-01-08T00:13:43;7.10;80.00
20568;DHT22;10442;49.932;11.592;2023-01-08T00:16:13;7.10;79.70
20568;DHT22;10442;49.932;11.592;2023-01-08T00:18:42;7.10;79.40
20568;DHT22;10442;49.932;11.592;2023-01-08T00:21:11;7.10;79.30
20568;DHT22;10442;49.932;11.592;2023-01-08T00:23:38;7.10;79.10
20568;DHT22;10442;49.932;11.592;2023-01-08T00:26:08;7.10;79.20
20568;DHT22;10442;49.932;11.592;2023-01-08T00:28:37;7.00;79.20
20568;DHT22;10442;49.932;11.592;2023-01-08T00:31:06;7.00;79.20
20568;DHT22;10442;49.932;11.592;2023-01-08T00:33:34;6.90;79.30
20568;DHT22;10442;49.932;11.592;2023-01-08T00:36:10;6.90;79.70
20568;DHT22;10442;49.932;11.592;2023-01-08T00:38:38;6.90;80.40
20568;DHT22;10442;49.932;11.592;2023-01-08T00:41:06;6.90;81.00
20568;DHT22;10442;49.932;11.592;2023-01-08T00:43:34;6.90;81.30
20568;DHT22;10442;49.932;11.592;2023-01-08T00:46:02;6.90;81.70
20568;DHT22;10442;49.932;11.592;2023-01-08T00:48:30;6.90;81.60
20568;DHT22;10442;49.932;11.592;2023-01-08T00:51:00;6.90;81.60
20568;DHT22;10442;49.932;11.592;2023-01-08T00:53:28;6.90;81.70
20568;DHT22;10442;49.932;11.592;2023-01-08T00:56:03;6.90;81.60
20568;DHT22;10442;49.932;11.592;2023-01-08T00:58:31;6.90;81.50
20568;DHT22;10442;49.932;11.592;2023-01-08T01:00:59;7.00;81.30
20568;DHT22;10442;49.932;11.592;2023-01-08T01:03:27;7.00;81.00
20568;DHT22;10442;49.932;11.592;2023-01-08T01:06:01;7.00;80.80
20568;DHT22;10442;49.932;11.592;2023-01-08T01:08:28;7.00;80.20
20568;DHT22;10442;49.932;11.592;2023-01-08T01:10:56;6.90;79.70
20568;DHT22;10442;49.932;11.592;2023-01-08T01:13:23;6.90;79.60
20568;DHT22;10442;49.932;11.592;2023-01-08T01:15:59;6.90;79.60
20568;DHT22;10442;49.932;11.592;2023-01-08T01:18:28;6.80;79.60
20568;DHT22;10442;49.932;11.592;2023-01-08T01:20:55;6.80;79.60
20568;DHT22;10442;49.932;11.592;2023-01-08T01:23:23;6.70;79.60
20568;DHT22;10442;49.932;11.592;2023-01-08T01:25:50;6.70;79.50
20568;DHT22;10442;49.932;11.592;2023-01-08T01:28:17;6.60;79.50
20568;DHT22;10442;49.932;11.592;2023-01-08T01:30:52;6.60;79.50
20568;DHT22;10442;49.932;11.592;2023-01-08T01:33:20;6.60;79.50
20568;DHT22;10442;49.932;11.592;2023-01-08T01:35:47;6.60;79.50
20568;DHT22;10442;49.932;11.592;2023-01-08T01:38:15;6.50;79.80
20568;DHT22;10442;49.932;11.592;2023-01-08T01:40:42;6.50;80.00
20568;DHT22;10442;49.932;11.592;2023-01-08T01:43:13;6.50;80.10
20568;DHT22;10442;49.932;11.592;2023-01-08T01:45:41;6.40;80.20
20568;DHT22;10442;49.932;11.592;2023-01-08T01:48:10;6.40;80.30
20568;DHT22;10442;49.932;11.592;2023-01-08T01:50:43;6.50;80.30
20568;DHT22;10442;49.932;11.592;2023-01-08T01:55:44;6.40;80.20
20568;DHT22;10442;49.932;11.592;2023-01-08T01:58:24;6.40;80.30
20568;DHT22;10442;49.932;11.592;2023-01-08T02:00:54;6.40;80.20
20568;DHT22;10442;49.932;11.592;2023-01-08T02:03:24;6.40;80.50
20568;DHT22;10442;49.932;11.592;2023-01-08T02:11:38;6.40;81.10
20568;DHT22;10442;49.932;11.592;2023-01-08T02:14:24;6.40;80.70
20568;DHT22;10442;49.932;11.592;2023-01-08T02:16:56;6.40;80.50
20568;DHT22;10442;49.932;11.592;2023-01-08T02:19:48;6.40;80.50
20568;DHT22;10442;49.932;11.592;2023-01-08T02:28:16;6.40;80.70
20568;DHT22;10442;49.932;11.592;2023-01-08T02:30:44;6.40;80.60
20568;DHT22;10442;49.932;11.592;2023-01-08T02:33:12;6.30;80.70
20568;DHT22;10442;49.932;11.592;2023-01-08T02:35:43;6.30;80.90
20568;DHT22;10442;49.932;11.592;2023-01-08T02:38:13;6.40;81.00
20568;DHT22;10442;49.932;11.592;2023-01-08T02:40:56;6.30;80.80
20568;DHT22;10442;49.932;11.592;2023-01-08T02:43:39;6.40;80.90
20568;DHT22;10442;49.932;11.592;2023-01-08T02:46:12;6.30;80.40
20568;DHT22;10442;49.932;11.592;2023-01-08T02:48:57;6.30;80.20
20568;DHT22;10442;49.932;11.592;2023-01-08T02:51:36;6.30;80.40
20568;DHT22;10442;49.932;11.592;2023-01-08T02:54:09;6.30;80.90
20568;DHT22;10442;49.932;11.592;2023-01-08T02:56:42;6.20;81.20
20568;DHT22;10442;49.932;11.592;2023-01-08T02:59:12;6.30;81.60
20568;DHT22;10442;49.932;11.592;2023-01-08T03:01:41;6.30;81.90
20568;DHT22;10442;49.932;11.592;2023-01-08T03:04:18;6.30;82.00
20568;DHT22;10442;49.932;11.592;2023-01-08T03:06:47;6.40;82.20
20568;DHT22;10442;49.932;11.592;2023-01-08T03:09:16;6.40;82.00
20568;DHT22;10442;49.932;11.592;2023-01-08T03:11:53;6.50;81.90
20568;DHT22;10442;49.932;11.592;2023-01-08T03:14:28;6.60;81.90
20568;DHT22;10442;49.932;11.592;2023-01-08T03:17:01;6.70;81.90
20568;DHT22;10442;49.932;11.592;2023-01-08T03:19:39;6.70;81.80
20568;DHT22;10442;49.932;11.592;2023-01-08T03:22:11;6.80;81.80
20568;DHT22;10442;49.932;11.592;2023-01-08T03:24:40;6.90;81.70
20568;DHT22;10442;49.932;11.592;2023-01-08T03:27:15;7.00;81.70
20568;DHT22;10442;49.932;11.592;2023-01-08T03:29:45;7.10;81.60
20568;DHT22;10442;49.932;11.592;2023-01-08T03:32:15;7.10;81.40
20568;DHT22;10442;49.932;11.592;2023-01-08T03:34:45;7.20;81.30
20568;DHT22;10442;49.932;11.592;2023-01-08T03:37:17;7.20;81.20
20568;DHT22;10442;49.932;11.592;2023-01-08T03:42:31;7.30;80.60
20568;DHT22;10442;49.932;11.592;2023-01-08T03:44:59;7.40;80.40
20568;DHT22;10442;49.932;11.592;2023-01-08T03:47:29;7.40;80.30
20568;DHT22;10442;49.932;11.592;2023-01-08T03:50:01;7.40;80.20
20568;DHT22;10442;49.932;11.592;2023-01-08T03:52:30;7.40;80.10
20568;DHT22;10442;49.932;11.592;2023-01-08T03:54:58;7.40;80.00
20568;DHT22;10442;49.932;11.592;2023-01-08T03:57:25;7.40;79.90
20568;DHT22;10442;49.932;11.592;2023-01-08T03:59:53;7.40;79.80
20568;DHT22;10442;49.932;11.592;2023-01-08T04:02:20;7.40;79.80
20568;DHT22;10442;49.932;11.592;2023-01-08T04:04:48;7.40;79.90
20568;DHT22;10442;49.932;11.592;2023-01-08T04:07:15;7.40;79.80
20568;DHT22;10442;49.932;11.592;2023-01-08T04:09:42;7.40;79.80
20568;DHT22;10442;49.932;11.592;2023-01-08T04:12:10;7.40;79.80
20568;DHT22;10442;49.932;11.592;2023-01-08T04:14:37;7.30;79.60
20568;DHT22;10442;49.932;11.592;2023-01-08T04:17:04;7.30;79.60
20568;DHT22;10442;49.932;11.592;2023-01-08T04:19:32;7.40;79.60
20568;DHT22;10442;49.932;11.592;2023-01-08T04:21:59;7.30;79.40
20568;DHT22;10442;49.932;11.592;2023-01-08T04:24:26;7.30;79.30
20568;DHT22;10442;49.932;11.592;2023-01-08T04:26:53;7.30;79.30
20568;DHT22;10442;49.932;11.592;2023-01-08T04:29:20;7.20;79.20
20568;DHT22;10442;49.932;11.592;2023-01-08T04:31:48;7.20;79.20
20568;DHT22;10442;49.932;11.592;2023-01-08T04:34:15;7.20;79.20
20568;DHT22;10442;49.932;11.592;2023-01-08T04:36:42;7.20;79.30
20568;DHT22;10442;49.932;11.592;2023-01-08T04:39:10;7.10;79.20
20568;DHT22;10442;49.932;11.592;2023-01-08T04:41:37;7.10;79.20
20568;DHT22;10442;49.932;11.592;2023-01-08T04:44:05;7.00;79.20
20568;DHT22;10442;49.932;11.592;2023-01-08T04:46:32;7.00;79.30
20568;DHT22;10442;49.932;11.592;2023-01-08T04:49:00;7.00;79.40
20568;DHT22;10442;49.932;11.592;2023-01-08T04:51:27;7.00;79.60
20568;DHT22;10442;49.932;11.592;2023-01-08T04:53:54;6.90;79.70
20568;DHT22;10442;49.932;11.592;2023-01-08T04:56:21;6.90;79.80
20568;DHT22;10442;49.932;11.592;2023-01-08T04:58:49;6.90;80.00
20568;DHT22;10442;49.932;11.592;2023-01-08T05:01:22;6.90;80.10
20568;DHT22;10442;49.932;11.592;2023-01-08T05:03:58;6.90;80.30
20568;DHT22;10442;49.932;11.592;2023-01-08T05:06:27;6.90;80.40
20568;DHT22;10442;49.932;11.592;2023-01-08T05:08:55;6.90;80.50
20568;DHT22;10442;49.932;11.592;2023-01-08T05:11:22;6.90;80.60
20568;DHT22;10442;49.932;11.592;2023-01-08T05:13:52;6.90;80.50
20568;DHT22;10442;49.932;11.592;2023-01-08T05:16:20;6.90;80.60
20568;DHT22;10442;49.932;11.592;2023-01-08T05:18:48;6.90;80.60
20568;DHT22;10442;49.932;11.592;2023-01-08T05:21:15;7.00;80.70
20568;DHT22;10442;49.932;11.592;2023-01-08T05:23:45;7.00;80.70
20568;DHT22;10442;49.932;11.592;2023-01-08T05:26:16;7.00;80.70
20568;DHT22;10442;49.932;11.592;2023-01-08T05:28:43;7.00;80.70
20568;DHT22;10442;49.932;11.592;2023-01-08T05:31:11;7.00;80.60
20568;DHT22;10442;49.932;11.592;2023-01-08T05:33:39;7.00;80.60
20568;DHT22;10442;49.932;11.592;2023-01-08T05:36:09;7.00;80.50
20568;DHT22;10442;49.932;11.592;2023-01-08T05:38:37;7.00;80.40
20568;DHT22;10442;49.932;11.592;2023-01-08T05:41:05;7.00;80.30
20568;DHT22;10442;49.932;11.592;2023-01-08T05:43:33;7.10;80.40
20568;DHT22;10442;49.932;11.592;2023-01-08T05:46:01;7.10;80.40
20568;DHT22;10442;49.932;11.592;2023-01-08T05:48:31;7.10;80.40
20568;DHT22;10442;49.932;11.592;2023-01-08T05:50:59;7.10;80.40
20568;DHT22;10442;49.932;11.592;2023-01-08T05:53:27;7.10;80.40
20568;DHT22;10442;49.932;11.592;2023-01-08T05:56:00;7.10;80.30
20568;DHT22;10442;49.932;11.592;2023-01-08T05:58:28;7.10;80.20
20568;DHT22;10442;49.932;11.592;2023-01-08T06:01:05;7.20;80.20
20568;DHT22;10442;49.932;11.592;2023-01-08T06:03:32;7.20;80.20
20568;DHT22;10442;49.932;11.592;2023-01-08T06:06:01;7.20;80.20
20568;DHT22;10442;49.932;11.592;2023-01-08T06:08:30;7.20;80.20
20568;DHT22;10442;49.932;11.592;2023-01-08T06:10:58;7.20;80.20
20568;DHT22;10442;49.932;11.592;2023-01-08T06:13:27;7.30;80.20
20568;DHT22;10442;49.932;11.592;2023-01-08T06:15:57;7.30;80.00
20568;DHT22;10442;49.932;11.592;2023-01-08T06:18:26;7.40;79.90
20568;DHT22;10442;49.932;11.592;2023-01-08T06:20:55;7.30;79.70
20568;DHT22;10442;49.932;11.592;2023-01-08T06:23:22;7.30;79.50
20568;DHT22;10442;49.932;11.592;2023-01-08T06:25:57;7.30;79.40
20568;DHT22;10442;49.932;11.592;2023-01-08T06:28:25;7.30;79.20
20568;DHT22;10442;49.932;11.592;2023-01-08T06:30:53;7.30;79.20
20568;DHT22;10442;49.932;11.592;2023-01-08T06:33:20;7.20;79.10
20568;DHT22;10442;49.932;11.592;2023-01-08T06:35:48;7.20;79.20
20568;DHT22;10442;49.932;11.592;2023-01-08T06:38:15;7.20;79.20
20568;DHT22;10442;49.932;11.592;2023-01-08T06:40:46;7.10;79.10
20568;DHT22;10442;49.932;11.592;2023-01-08T06:43:14;7.10;79.30
20568;DHT22;10442;49.932;11.592;2023-01-08T06:45:41;7.00;79.40
20568;DHT22;10442;49.932;11.592;2023-01-08T06:48:08;7.00;79.50
20568;DHT22;10442;49.932;11.592;2023-01-08T06:50:36;7.00;79.60
20568;DHT22;10442;49.932;11.592;2023-01-08T06:53:03;7.00;79.70
20568;DHT22;10442;49.932;11.592;2023-01-08T06:55:30;7.00;79.80
20568;DHT22;10442;49.932;11.592;2023-01-08T06:57:58;7.00;79.90
20568;DHT22;10442;49.932;11.592;2023-01-08T07:00:26;6.90;80.00
20568;DHT22;10442;49.932;11.592;2023-01-08T07:02:54;6.90;80.10
20568;DHT22;10442;49.932;11.592;2023-01-08T07:05:22;6.90;80.30
20568;DHT22;10442;49.932;11.592;2023-01-08T07:07:50;6.90;80.50
20568;DHT22;10442;49.932;11.592;2023-01-08T07:10:17;6.80;80.60
20568;DHT22;10442;49.932;11.592;2023-01-08T07:12:47;6.90;80.80
20568;DHT22;10442;49.932;11.592;2023-01-08T07:15:15;6.80;80.90
20568;DHT22;10442;49.932;11.592;2023-01-08T07:17:42;6.80;81.00
20568;DHT22;10442;49.932;11.592;2023-01-08T07:20:10;6.80;81.20
20568;DHT22;10442;49.932;11.592;2023-01-08T07:22:37;6.80;81.30
20568;DHT22;10442;49.932;11.592;2023-01-08T07:25:05;6.80;81.40
20568;DHT22;10442;49.932;11.592;2023-01-08T07:27:33;6.80;81.50
20568;DHT22;10442;49.932;11.592;2023-01-08T07:30:01;6.80;81.50
20568;DHT22;10442;49.932;11.592;2023-01-08T07:32:28;6.90;81.50
20568;DHT22;10442;49.932;11.592;2023-01-08T07:34:55;6.90;81.50
20568;DHT22;10442;49.932;11.592;2023-01-08T07:37:25;7.00;81.40
20568;DHT22;10442;49.932;11.592;2023-01-08T07:39:52;7.00;81.30
20568;DHT22;10442;49.932;11.592;2023-01-08T07:42:20;7.10;81.20
20568;DHT22;10442;49.932;11.592;2023-01-08T07:44:47;7.10;81.00
20568;DHT22;10442;49.932;11.592;2023-01-08T07:47:15;7.20;80.90
20568;DHT22;10442;49.932;11.592;2023-01-08T07:49:42;7.30;80.80
20568;DHT22;10442;49.932;11.592;2023-01-08T07:52:09;7.40;80.80
20568;DHT22;10442;49.932;11.592;2023-01-08T07:54:37;7.40;80.70
20568;DHT22;10442;49.932;11.592;2023-01-08T07:57:04;7.40;80.50
20568;DHT22;10442;49.932;11.592;2023-01-08T07:59:32;7.40;80.30
20568;DHT22;10442;49.932;11.592;2023-01-08T08:01:59;7.40;80.20
20568;DHT22;10442;49.932;11.592;2023-01-08T08:04:26;7.40;80.20
20568;DHT22;10442;49.932;11.592;2023-01-08T08:06:54;7.40;80.10
20568;DHT22;10442;49.932;11.592;2023-01-08T08:09:22;7.40;80.10
20568;DHT22;10442;49.932;11.592;2023-01-08T08:11:49;7.40;80.10
20568;DHT22;10442;49.932;11.592;2023-01-08T08:14:17;7.40;80.80
20568;DHT22;10442;49.932;11.592;2023-01-08T08:16:44;7.40;80.10
20568;DHT22;10442;49.932;11.592;2023-01-08T08:19:11;7.40;80.00
20568;DHT22;10442;49.932;11.592;2023-01-08T08:21:39;7.40;80.00
20568;DHT22;10442;49.932;11.592;2023-01-08T08:24:06;7.40;80.60
20568;DHT22;10442;49.932;11.592;2023-01-08T08:26:34;7.40;79.80
20568;DHT22;10442;49.932;11.592;2023-01-08T08:29:01;7.40;79.80
20568;DHT22;10442;49.932;11.592;2023-01-08T08:31:29;7.50;79.90
20568;DHT22;10442;49.932;11.592;2023-01-08T08:33:56;7.40;79.80
20568;DHT22;10442;49.932;11.592;2023-01-08T08:36:29;7.40;79.80
20568;DHT22;10442;49.932;11.592;2023-01-08T08:38:57;7.40;79.80
20568;DHT22;10442;49.932;11.592;2023-01-08T08:41:24;7.40;79.90
20568;DHT22;10442;49.932;11.592;2023-01-08T08:43:51;7.50;80.00
20568;DHT22;10442;49.932;11.592;2023-01-08T08:46:18;7.50;79.90
20568;DHT22;10442;49.932;11.592;2023-01-08T08:48:46;7.50;79.90
20568;DHT22;10442;49.932;11.592;2023-01-08T08:51:14;7.50;79.90
20568;DHT22;10442;49.932;11.592;2023-01-08T08:53:41;7.60;80.00
20568;DHT22;10442;49.932;11.592;2023-01-08T08:56:08;7.60;79.90
20568;DHT22;10442;49.932;11.592;2023-01-08T08:58:35;7.60;79.80
20568;DHT22;10442;49.932;11.592;2023-01-08T09:01:03;7.70;79.80
20568;DHT22;10442;49.932;11.592;2023-01-08T09:03:31;7.70;79.90
20568;DHT22;10442;49.932;11.592;2023-01-08T09:05:58;7.70;79.70
20568;DHT22;10442;49.932;11.592;2023-01-08T09:08:26;7.80;79.60
20568;DHT22;10442;49.932;11.592;2023-01-08T09:10:54;7.80;79.60
20568;DHT22;10442;49.932;11.592;2023-01-08T09:13:21;7.90;79.60
20568;DHT22;10442;49.932;11.592;2023-01-08T09:15:49;7.90;79.30
20568;DHT22;10442;49.932;11.592;2023-01-08T09:18:16;7.90;79.20
20568;DHT22;10442;49.932;11.592;2023-01-08T09:20:43;7.90;79.10
20568;DHT22;10442;49.932;11.592;2023-01-08T09:23:11;8.00;79.20
20568;DHT22;10442;49.932;11.592;2023-01-08T09:25:38;8.00;79.10
20568;DHT22;10442;49.932;11.592;2023-01-08T09:28:08;8.00;79.00
20568;DHT22;10442;49.932;11.592;2023-01-08T09:30:39;8.10;79.00
20568;DHT22;10442;49.932;11.592;2023-01-08T09:33:08;8.10;79.00
20568;DHT22;10442;49.932;11.592;2023-01-08T09:35:35;8.20;79.10
20568;DHT22;10442;49.932;11.592;2023-01-08T09:38:03;8.20;78.80
20568;DHT22;10442;49.932;11.592;2023-01-08T09:40:38;8.30;78.60
20568;DHT22;10442;49.932;11.592;2023-01-08T09:43:09;8.30;78.30
20568;DHT22;10442;49.932;11.592;2023-01-08T09:45:41;8.30;78.00
20568;DHT22;10442;49.932;11.592;2023-01-08T09:48:16;8.30;78.10
20568;DHT22;10442;49.932;11.592;2023-01-08T09:50:46;8.30;78.30
20568;DHT22;10442;49.932;11.592;2023-01-08T09:53:15;8.40;78.30
20568;DHT22;10442;49.932;11.592;2023-01-08T09:55:49;8.40;78.30
20568;DHT22;10442;49.932;11.592;2023-01-08T10:01:36;8.50;78.50
20568;DHT22;10442;49.932;11.592;2023-01-08T10:04:24;8.60;78.70
20568;DHT22;10442;49.932;11.592;2023-01-08T10:06:55;8.60;78.40
20568;DHT22;10442;49.932;11.592;2023-01-08T10:09:29;8.70;78.20
20568;DHT22;10442;49.932;11.592;2023-01-08T10:12:00;8.80;78.40
20568;DHT22;10442;49.932;11.592;2023-01-08T10:14:33;8.90;78.30
20568;DHT22;10442;49.932;11.592;2023-01-08T10:17:26;8.90;77.80
20568;DHT22;10442;49.932;11.592;2023-01-08T10:19:54;9.10;77.20
20568;DHT22;10442;49.932;11.592;2023-01-08T10:22:30;9.20;76.80
20568;DHT22;10442;49.932;11.592;2023-01-08T10:25:19;9.30;76.50
20568;DHT22;10442;49.932;11.592;2023-01-08T10:27:48;9.30;76.10
20568;DHT22;10442;49.932;11.592;2023-01-08T10:30:17;9.40;76.50
20568;DHT22;10442;49.932;11.592;2023-01-08T10:32:53;9.50;76.10
20568;DHT22;10442;49.932;11.592;2023-01-08T10:35:28;9.50;76.00
20568;DHT22;10442;49.932;11.592;2023-01-08T10:37:57;9.60;75.80
20568;DHT22;10442;49.932;11.592;2023-01-08T10:40:40;9.70;76.00
20568;DHT22;10442;49.932;11.592;2023-01-08T10:43:17;9.80;75.90
20568;DHT22;10442;49.932;11.592;2023-01-08T10:46:12;9.90;75.80
20568;DHT22;10442;49.932;11.592;2023-01-08T10:48:47;10.00;75.90
20568;DHT22;10442;49.932;11.592;2023-01-08T10:51:19;10.10;75.80
20568;DHT22;10442;49.932;11.592;2023-01-08T10:53:47;10.20;75.70
20568;DHT22;10442;49.932;11.592;2023-01-08T10:56:26;10.20;75.70
20568;DHT22;10442;49.932;11.592;2023-01-08T10:58:54;10.20;75.40
20568;DHT22;10442;49.932;11.592;2023-01-08T11:01:27;10.30;75.60
20568;DHT22;10442;49.932;11.592;2023-01-08T11:03:58;10.30;75.50
20568;DHT22;10442;49.932;11.592;2023-01-08T11:06:34;10.30;75.40
20568;DHT22;10442;49.932;11.592;2023-01-08T11:09:21;10.30;75.70
20568;DHT22;10442;49.932;11.592;2023-01-08T11:11:49;10.30;75.70
20568;DHT22;10442;49.932;11.592;2023-01-08T11:14:19;10.30;75.70
20568;DHT22;10442;49.932;11.592;2023-01-08T11:16:47;10.30;75.80
20568;DHT22;10442;49.932;11.592;2023-01-08T11:19:18;10.30;75.90
20568;DHT22;10442;49.932;11.592;2023-01-08T11:22:00;10.30;76.00
20568;DHT22;10442;49.932;11.592;2023-01-08T11:24:29;10.30;76.20
20568;DHT22;10442;49.932;11.592;2023-01-08T11:29:51;10.20;76.50
20568;DHT22;10442;49.932;11.592;2023-01-08T11:32:47;10.20;76.60
20568;DHT22;10442;49.932;11.592;2023-01-08T11:35:51;10.20;76.70
20568;DHT22;10442;49.932;11.592;2023-01-08T11:38:19;10.20;77.00
20568;DHT22;10442;49.932;11.592;2023-01-08T11:41:09;10.20;77.30
20568;DHT22;10442;49.932;11.592;2023-01-08T11:44:09;10.20;77.40
20568;DHT22;10442;49.932;11.592;2023-01-08T11:46:55;10.20;77.50
20568;DHT22;10442;49.932;11.592;2023-01-08T11:55:16;10.10;77.50
20568;DHT22;10442;49.932;11.592;2023-01-08T12:03:07;10.10;77.50
20568;DHT22;10442;49.932;11.592;2023-01-08T12:08:47;10.10;77.70
20568;DHT22;10442;49.932;11.592;2023-01-08T12:14:01;10.10;78.00
20568;DHT22;10442;49.932;11.592;2023-01-08T12:19:39;10.20;78.20
20568;DHT22;10442;49.932;11.592;2023-01-08T12:27:58;10.10;78.40
20568;DHT22;10442;49.932;11.592;2023-01-08T12:36:15;10.10;78.60
20568;DHT22;10442;49.932;11.592;2023-01-08T12:38:46;10.10;78.70
20568;DHT22;10442;49.932;11.592;2023-01-08T12:41:17;10.20;79.00
20568;DHT22;10442;49.932;11.592;2023-01-08T12:46:21;10.20;79.10
20568;DHT22;10442;49.932;11.592;2023-01-08T12:48:52;10.20;79.10
20568;DHT22;10442;49.932;11.592;2023-01-08T12:54:30;10.30;79.40
20568;DHT22;10442;49.932;11.592;2023-01-08T12:57:10;10.30;79.30
20568;DHT22;10442;49.932;11.592;2023-01-08T12:59:45;10.40;79.40
20568;DHT22;10442;49.932;11.592;2023-01-08T13:07:50;10.50;79.50
20568;DHT22;10442;49.932;11.592;2023-01-08T13:13:07;10.60;79.40
20568;DHT22;10442;49.932;11.592;2023-01-08T13:15:35;10.70;79.40
20568;DHT22;10442;49.932;11.592;2023-01-08T13:18:16;10.70;79.30
20568;DHT22;10442;49.932;11.592;2023-01-08T13:20:59;10.70;79.20
20568;DHT22;10442;49.932;11.592;2023-01-08T13:23:29;10.80;79.20
20568;DHT22;10442;49.932;11.592;2023-01-08T13:25:59;10.80;79.20
20568;DHT22;10442;49.932;11.592;2023-01-08T13:28:42;10.80;79.10
20568;DHT22;10442;49.932;11.592;2023-01-08T13:33:48;10.90;78.90
20568;DHT22;10442;49.932;11.592;2023-01-08T13:36:21;10.80;78.70
20568;DHT22;10442;49.932;11.592;2023-01-08T13:39:03;10.80;78.70
20568;DHT22;10442;49.932;11.592;2023-01-08T13:41:40;10.80;78.60
20568;DHT22;10442;49.932;11.592;2023-01-08T13:44:32;10.80;78.60
20568;DHT22;10442;49.932;11.592;2023-01-08T13:47:04;10.80;78.70
20568;DHT22;10442;49.932;11.592;2023-01-08T13:49:41;10.80;78.70
20568;DHT22;10442;49.932;11.592;2023-01-08T13:52:29;10.70;78.60
20568;DHT22;10442;49.932;11.592;2023-01-08T13:54:58;10.70;78.90
20568;DHT22;10442;49.932;11.592;2023-01-08T13:57:33;10.70;78.80
20568;DHT22;10442;49.932;11.592;2023-01-08T14:00:06;10.70;78.80
20568;DHT22;10442;49.932;11.592;2023-01-08T14:02:44;10.70;78.80
20568;DHT22;10442;49.932;11.592;2023-01-08T14:05:26;10.80;79.70
20568;DHT22;10442;49.932;11.592;2023-01-08T14:07:54;10.70;78.90
20568;DHT22;10442;49.932;11.592;2023-01-08T14:10:23;10.80;79.80
20568;DHT22;10442;49.932;11.592;2023-01-08T14:12:51;10.80;79.10
20568;DHT22;10442;49.932;11.592;2023-01-08T14:15:22;10.80;79.10
20568;DHT22;10442;49.932;11.592;2023-01-08T14:17:50;10.80;79.10
20568;DHT22;10442;49.932;11.592;2023-01-08T14:20:35;10.90;79.10
20568;DHT22;10442;49.932;11.592;2023-01-08T14:23:19;10.80;79.10
20568;DHT22;10442;49.932;11.592;2023-01-08T14:25:47;10.80;79.00
20568;DHT22;10442;49.932;11.592;2023-01-08T14:28:18;10.90;79.10
20568;DHT22;10442;49.932;11.592;2023-01-08T14:30:56;10.80;78.90
20568;DHT22;10442;49.932;11.592;2023-01-08T14:33:29;10.90;79.00
20568;DHT22;10442;49.932;11.592;2023-01-08T14:35:59;10.90;78.80
20568;DHT22;10442;49.932;11.592;2023-01-08T14:38:27;10.90;78.80
20568;DHT22;10442;49.932;11.592;2023-01-08T14:41:10;10.90;78.80
20568;DHT22;10442;49.932;11.592;2023-01-08T14:43:41;10.90;78.60
20568;DHT22;10442;49.932;11.592;2023-01-08T14:46:25;10.90;78.60
20568;DHT22;10442;49.932;11.592;2023-01-08T14:48:54;10.90;78.50
20568;DHT22;10442;49.932;11.592;2023-01-08T14:51:25;10.90;78.50
20568;DHT22;10442;49.932;11.592;2023-01-08T14:53:56;10.90;78.50
20568;DHT22;10442;49.932;11.592;2023-01-08T14:56:28;10.90;78.50
20568;DHT22;10442;49.932;11.592;2023-01-08T14:58:57;10.90;78.40
20568;DHT22;10442;49.932;11.592;2023-01-08T15:01:27;10.90;78.40
20568;DHT22;10442;49.932;11.592;2023-01-08T15:04:24;10.90;78.40
20568;DHT22;10442;49.932;11.592;2023-01-08T15:07:02;10.90;78.50
20568;DHT22;10442;49.932;11.592;2023-01-08T15:09:32;10.90;78.40
20568;DHT22;10442;49.932;11.592;2023-01-08T15:12:04;10.80;78.30
20568;DHT22;10442;49.932;11.592;2023-01-08T15:14:32;10.80;78.30
20568;DHT22;10442;49.932;11.592;2023-01-08T15:17:11;10.80;78.20
20568;DHT22;10442;49.932;11.592;2023-01-08T15:19:50;10.80;78.20
20568;DHT22;10442;49.932;11.592;2023-01-08T15:22:21;10.80;78.30
20568;DHT22;10442;49.932;11.592;2023-01-08T15:24:59;10.80;78.30
20568;DHT22;10442;49.932;11.592;2023-01-08T15:27:28;10.70;78.30
20568;DHT22;10442;49.932;11.592;2023-01-08T15:29:58;10.70;78.20
20568;DHT22;10442;49.932;11.592;2023-01-08T15:32:29;10.70;78.10
20568;DHT22;10442;49.932;11.592;2023-01-08T15:34:58;10.70;78.10
20568;DHT22;10442;49.932;11.592;2023-01-08T15:37:26;10.70;78.10
20568;DHT22;10442;49.932;11.592;2023-01-08T15:39:54;10.70;78.10
20568;DHT22;10442;49.932;11.592;2023-01-08T15:42:29;10.60;78.10
20568;DHT22;10442;49.932;11.592;2023-01-08T15:45:19;10.50;78.20
20568;DHT22;10442;49.932;11.592;2023-01-08T15:47:47;10.60;78.20
20568;DHT22;10442;49.932;11.592;2023-01-08T15:50:15;10.50;78.30
20568;DHT22;10442;49.932;11.592;2023-01-08T15:52:42;10.50;78.40
20568;DHT22;10442;49.932;11.592;2023-01-08T15:55:21;10.50;78.20
20568;DHT22;10442;49.932;11.592;2023-01-08T15:57:48;10.40;78.10
20568;DHT22;10442;49.932;11.592;2023-01-08T16:00:18;10.40;78.10
20568;DHT22;10442;49.932;11.592;2023-01-08T16:02:50;10.40;78.00
20568;DHT22;10442;49.932;11.592;2023-01-08T16:05:19;10.30;78.00
20568;DHT22;10442;49.932;11.592;2023-01-08T16:07:47;10.30;77.90
20568;DHT22;10442;49.932;11.592;2023-01-08T16:10:15;10.20;77.90
20568;DHT22;10442;49.932;11.592;2023-01-08T16:12:43;10.10;78.10
20568;DHT22;10442;49.932;11.592;2023-01-08T16:15:12;10.00;78.30
20568;DHT22;10442;49.932;11.592;2023-01-08T16:17:41;9.90;78.30
20568;DHT22;10442;49.932;11.592;2023-01-08T16:20:10;9.90;78.50
20568;DHT22;10442;49.932;11.592;2023-01-08T16:22:37;9.80;78.60
20568;DHT22;10442;49.932;11.592;2023-01-08T16:25:06;9.80;78.70
20568;DHT22;10442;49.932;11.592;2023-01-08T16:27:34;9.70;78.80
20568;DHT22;10442;49.932;11.592;2023-01-08T16:30:02;9.70;79.00
20568;DHT22;10442;49.932;11.592;2023-01-08T16:32:29;9.70;79.00
20568;DHT22;10442;49.932;11.592;2023-01-08T16:34:56;9.70;79.10
20568;DHT22;10442;49.932;11.592;2023-01-08T16:37:24;9.60;79.00
20568;DHT22;10442;49.932;11.592;2023-01-08T16:39:51;9.60;79.10
20568;DHT22;10442;49.932;11.592;2023-01-08T16:42:19;9.50;79.20
20568;DHT22;10442;49.932;11.592;2023-01-08T16:44:46;9.50;79.50
20568;DHT22;10442;49.932;11.592;2023-01-08T16:47:14;9.40;79.60
20568;DHT22;10442;49.932;11.592;2023-01-08T16:49:41;9.40;79.70
20568;DHT22;10442;49.932;11.592;2023-01-08T16:52:08;9.30;79.80
20568;DHT22;10442;49.932;11.592;2023-01-08T16:54:36;9.30;79.90
20568;DHT22;10442;49.932;11.592;2023-01-08T16:57:03;9.20;80.00
20568;DHT22;10442;49.932;11.592;2023-01-08T16:59:31;9.20;80.10
20568;DHT22;10442;49.932;11.592;2023-01-08T17:01:59;9.10;80.30